Marina Bliss — 9VDP3 — position and weather

sailwx.info

Track history (hours):
 
Tides and Currents Weather Stations Pressure Air Temp Water Temp Dewpoint Dewpoint Depression Visibility Wind Speed Wind Dir Waves Ship Positions

Marina Bliss

Last reported at 2017-Nov-22 19:45 UTC. Time now 2017-Nov-23 01:34 UTC.
Position N 37°11' W 076°05'.

Length 229 m; draft 7.1 m.

Type: Cargo ship. MMSI: 563885000.

Date/timePositionNaut miles runAvg speedWind from/ knotsBaromVisibWave heightAir tempDewpointWater temp
2017-Nov-22 19:45N 37°11' W 076°05'2 4.4
2017-Nov-22 19:23N 37°10' W 076°07'  
2017-Nov-14 17:43N 38°04' W 030°41'413.3
2017-Nov-14 17:25N 38°04' W 030°36'513.3
2017-Nov-14 17:01N 38°04' W 030°29'1113.1
2017-Nov-14 16:10N 38°05' W 030°15'212.9
2017-Nov-14 16:00N 38°05' W 030°12'713.2
2017-Nov-14 15:30N 38°05' W 030°04'713.2
2017-Nov-14 15:00N 38°05' W 029°55'713.1
2017-Nov-14 14:30N 38°06' W 029°47'713.3
2017-Nov-14 14:00N 38°06' W 029°39'713.7
2017-Nov-14 13:30N 38°07' W 029°30'713.5
2017-Nov-14 13:00N 38°07' W 029°21'713.4
2017-Nov-14 12:30N 38°07' W 029°13'713.1
2017-Nov-14 12:00N 38°07' W 029°04'713.1
2017-Nov-14 11:30N 38°08' W 028°56'713.2
2017-Nov-14 11:00N 38°08' W 028°48'612.9
2017-Nov-14 10:30N 38°08' W 028°40'612.8
2017-Nov-14 10:00N 38°08' W 028°31'612.7
2017-Nov-14 09:30N 38°09' W 028°23'713.1
2017-Nov-14 09:00N 38°10' W 028°15'613.0
2017-Nov-14 08:30N 38°10' W 028°07'612.8
2017-Nov-14 08:00N 38°10' W 027°59'612.7
2017-Nov-14 07:30N 38°10' W 027°51'612.3
2017-Nov-14 07:00N 38°11' W 027°43'612.7
2017-Nov-14 06:31N 38°10' W 027°35'612.9
2017-Nov-14 06:00N 38°10' W 027°27'613.0
2017-Nov-14 05:30N 38°09' W 027°18'713.2
2017-Nov-14 05:00N 38°09' W 027°10'713.0
2017-Nov-14 04:30N 38°09' W 027°02'613.0
2017-Nov-14 04:00N 38°09' W 026°53'713.0
2017-Nov-14 03:30N 38°09' W 026°45'612.9
2017-Nov-14 03:00N 38°08' W 026°37'713.2
2017-Nov-14 02:30N 38°08' W 026°28'713.4
2017-Nov-14 02:00N 38°08' W 026°20'713.4
2017-Nov-14 01:30N 38°08' W 026°11'713.3
2017-Nov-14 01:00N 38°07' W 026°03'613.0
2017-Nov-14 00:30N 38°07' W 025°55'713.4
2017-Nov-14 00:00N 38°07' W 025°46'713.8
2017-Nov-13 23:31N 38°07' W 025°37'713.5
2017-Nov-13 23:00N 38°06' W 025°29'713.4
2017-Nov-13 22:30N 38°06' W 025°20'713.2
2017-Nov-13 22:00N 38°06' W 025°12'  
Track history (hours):
 
Tides and Currents Weather Stations Pressure Air Temp Water Temp Dewpoint Dewpoint Depression Visibility Wind Speed Wind Dir Waves Ship Positions

Marina Bliss

Last reported at 2017-Nov-22 19:45 UTC. Time now 2017-Nov-23 01:34 UTC.
Position N 37°11' W 076°05'.

Length 229 m; draft 7.1 m.

Type: Cargo ship. MMSI: 563885000.

Date/timePositionNaut miles runAvg speedWind from/ knotsBaromVisibWave heightAir tempDewpointWater temp
2017-Nov-22 19:45N 37°11' W 076°05'2 4.4
2017-Nov-22 19:23N 37°10' W 076°07'  
2017-Nov-14 17:43N 38°04' W 030°41'413.3
2017-Nov-14 17:25N 38°04' W 030°36'513.3
2017-Nov-14 17:01N 38°04' W 030°29'1113.1
2017-Nov-14 16:10N 38°05' W 030°15'212.9
2017-Nov-14 16:00N 38°05' W 030°12'713.2
2017-Nov-14 15:30N 38°05' W 030°04'713.2
2017-Nov-14 15:00N 38°05' W 029°55'713.1
2017-Nov-14 14:30N 38°06' W 029°47'713.3
2017-Nov-14 14:00N 38°06' W 029°39'713.7
2017-Nov-14 13:30N 38°07' W 029°30'713.5
2017-Nov-14 13:00N 38°07' W 029°21'713.4
2017-Nov-14 12:30N 38°07' W 029°13'713.1
2017-Nov-14 12:00N 38°07' W 029°04'713.1
2017-Nov-14 11:30N 38°08' W 028°56'713.2
2017-Nov-14 11:00N 38°08' W 028°48'612.9
2017-Nov-14 10:30N 38°08' W 028°40'612.8
2017-Nov-14 10:00N 38°08' W 028°31'612.7
2017-Nov-14 09:30N 38°09' W 028°23'713.1
2017-Nov-14 09:00N 38°10' W 028°15'613.0
2017-Nov-14 08:30N 38°10' W 028°07'612.8
2017-Nov-14 08:00N 38°10' W 027°59'612.7
2017-Nov-14 07:30N 38°10' W 027°51'612.3
2017-Nov-14 07:00N 38°11' W 027°43'612.7
2017-Nov-14 06:31N 38°10' W 027°35'612.9
2017-Nov-14 06:00N 38°10' W 027°27'613.0
2017-Nov-14 05:30N 38°09' W 027°18'713.2
2017-Nov-14 05:00N 38°09' W 027°10'713.0
2017-Nov-14 04:30N 38°09' W 027°02'613.0
2017-Nov-14 04:00N 38°09' W 026°53'713.0
2017-Nov-14 03:30N 38°09' W 026°45'612.9
2017-Nov-14 03:00N 38°08' W 026°37'713.2
2017-Nov-14 02:30N 38°08' W 026°28'713.4
2017-Nov-14 02:00N 38°08' W 026°20'713.4
2017-Nov-14 01:30N 38°08' W 026°11'713.3
2017-Nov-14 01:00N 38°07' W 026°03'613.0
2017-Nov-14 00:30N 38°07' W 025°55'713.4
2017-Nov-14 00:00N 38°07' W 025°46'713.8
2017-Nov-13 23:31N 38°07' W 025°37'713.5
2017-Nov-13 23:00N 38°06' W 025°29'713.4
2017-Nov-13 22:30N 38°06' W 025°20'713.2
2017-Nov-13 22:00N 38°06' W 025°12'  

Dump ship's entire track history